createdAt,value
2018-08-24T00:01:36.575Z,20.40
2018-08-24T00:04:08.471Z,20.19
2018-08-24T00:06:38.456Z,19.90
2018-08-24T00:09:14.979Z,19.57
2018-08-24T00:11:43.457Z,19.26
2018-08-24T00:14:12.910Z,19.29
2018-08-24T00:16:42.843Z,19.18
2018-08-24T00:19:12.844Z,19.01
2018-08-24T00:21:41.350Z,18.86
2018-08-24T00:24:10.638Z,18.75
2018-08-24T00:26:39.108Z,18.39
2018-08-24T00:29:08.061Z,18.06
2018-08-24T00:31:37.160Z,17.99
2018-08-24T00:34:05.667Z,18.06
2018-08-24T00:36:34.041Z,18.20
2018-08-24T00:39:02.508Z,18.26
2018-08-24T00:41:30.964Z,18.24
2018-08-24T00:43:59.380Z,18.24
2018-08-24T00:46:27.809Z,18.25
2018-08-24T00:48:56.250Z,18.30
2018-08-24T00:51:24.672Z,18.38
2018-08-24T00:53:53.149Z,18.39
2018-08-24T00:56:21.581Z,18.46
2018-08-24T00:58:50.011Z,18.42
2018-08-24T01:01:18.542Z,18.50
2018-08-24T01:03:46.960Z,18.52
2018-08-24T01:06:19.528Z,18.49
2018-08-24T01:08:48.389Z,18.58
2018-08-24T01:11:16.792Z,18.56
2018-08-24T01:13:45.268Z,18.58
2018-08-24T01:16:19.053Z,18.63
2018-08-24T01:18:48.433Z,18.65
2018-08-24T01:21:17.000Z,18.65
2018-08-24T01:23:45.397Z,18.67
2018-08-24T01:26:17.979Z,18.67
2018-08-24T01:28:46.646Z,18.69
2018-08-24T01:31:15.121Z,18.68
2018-08-24T01:33:43.481Z,18.58
2018-08-24T01:36:11.905Z,18.59
2018-08-24T01:38:40.325Z,18.59
2018-08-24T01:41:08.768Z,18.58
2018-08-24T01:43:37.154Z,18.60
2018-08-24T01:46:10.390Z,18.58
2018-08-24T01:48:39.581Z,18.58
2018-08-24T01:51:08.020Z,18.61
2018-08-24T01:53:36.480Z,18.65
2018-08-24T01:56:04.909Z,18.57
2018-08-24T01:58:33.342Z,18.59
2018-08-24T02:01:01.741Z,18.60
2018-08-24T02:03:30.173Z,18.44
2018-08-24T02:06:03.927Z,18.42
2018-08-24T02:08:32.327Z,18.43
2018-08-24T02:11:00.827Z,18.41
2018-08-24T02:13:34.521Z,18.41
2018-08-24T02:16:02.989Z,18.30
2018-08-24T02:18:36.531Z,18.27
2018-08-24T02:21:10.359Z,18.22
2018-08-24T02:23:38.771Z,18.22
2018-08-24T02:26:07.208Z,18.21
2018-08-24T02:28:35.592Z,18.20
2018-08-24T02:31:04.109Z,18.22
2018-08-24T02:33:38.455Z,18.21
2018-08-24T02:36:07.232Z,18.17
2018-08-24T02:38:35.602Z,18.10
2018-08-24T02:41:04.045Z,18.10
2018-08-24T02:43:32.502Z,18.13
2018-08-24T02:46:00.872Z,18.10
2018-08-24T02:48:29.300Z,18.10
2018-08-24T02:50:57.680Z,18.06
2018-08-24T02:53:26.397Z,18.03
2018-08-24T02:55:54.778Z,17.96
2018-08-24T02:58:23.209Z,17.91
2018-08-24T03:00:51.604Z,17.85
2018-08-24T03:03:19.989Z,17.87
2018-08-24T03:05:48.428Z,17.89
2018-08-24T03:08:16.958Z,17.93
2018-08-24T03:10:45.332Z,17.85
2018-08-24T03:13:13.720Z,17.85
2018-08-24T03:15:42.136Z,17.78
2018-08-24T03:18:10.539Z,17.79
2018-08-24T03:20:38.999Z,17.74
2018-08-24T03:23:07.441Z,17.76
2018-08-24T03:25:35.933Z,17.72
2018-08-24T03:28:04.344Z,17.71
2018-08-24T03:30:32.740Z,17.60
2018-08-24T03:33:01.156Z,17.61
2018-08-24T03:35:29.623Z,17.64
2018-08-24T03:37:58.013Z,17.58
2018-08-24T03:40:26.363Z,17.48
2018-08-24T03:42:54.834Z,17.52
2018-08-24T03:45:23.360Z,17.48
2018-08-24T03:47:51.808Z,17.49
2018-08-24T03:50:20.168Z,17.49
2018-08-24T03:52:48.640Z,17.53
2018-08-24T03:55:17.034Z,17.51
2018-08-24T03:57:45.434Z,17.37
2018-08-24T04:00:17.314Z,17.29
2018-08-24T04:02:46.510Z,17.26
2018-08-24T04:05:15.373Z,17.20
2018-08-24T04:07:44.392Z,17.12
2018-08-24T04:10:12.833Z,17.02
2018-08-24T04:12:41.309Z,17.05
2018-08-24T04:15:09.663Z,16.83
2018-08-24T04:17:43.207Z,16.95
2018-08-24T04:20:12.136Z,17.00
2018-08-24T04:22:40.760Z,16.98
2018-08-24T04:25:09.783Z,17.08
2018-08-24T04:27:38.530Z,17.00
2018-08-24T04:30:07.462Z,16.93
2018-08-24T04:32:35.944Z,16.94
2018-08-24T04:35:04.912Z,16.94
2018-08-24T04:37:33.366Z,16.95
2018-08-24T04:40:01.880Z,16.96
2018-08-24T04:42:30.288Z,16.98
2018-08-24T04:44:58.681Z,16.96
2018-08-24T04:47:27.084Z,16.96
2018-08-24T04:49:55.527Z,16.85
2018-08-24T04:52:24.447Z,16.79
2018-08-24T04:54:52.999Z,16.77
2018-08-24T04:57:21.376Z,16.75
2018-08-24T04:59:49.857Z,16.72
2018-08-24T05:02:18.251Z,16.80
2018-08-24T05:04:46.651Z,16.86
2018-08-24T05:07:15.025Z,16.88
2018-08-24T05:09:43.573Z,16.91
2018-08-24T05:12:11.961Z,16.97
2018-08-24T05:14:40.336Z,16.93
2018-08-24T05:17:08.807Z,16.95
2018-08-24T05:19:37.236Z,16.91
2018-08-24T05:22:05.875Z,16.92
2018-08-24T05:24:34.326Z,16.98
2018-08-24T05:27:02.711Z,17.05
2018-08-24T05:29:31.179Z,17.03
2018-08-24T05:31:59.601Z,17.04
2018-08-24T05:34:28.112Z,17.10
2018-08-24T05:36:56.891Z,17.12
2018-08-24T05:39:25.301Z,17.09
2018-08-24T05:41:53.761Z,17.11
2018-08-24T05:44:23.371Z,17.10
2018-08-24T05:46:51.807Z,17.12
2018-08-24T05:49:20.184Z,17.09
2018-08-24T05:51:48.662Z,17.12
2018-08-24T05:54:17.104Z,17.11
2018-08-24T05:56:45.552Z,17.13
2018-08-24T05:59:14.001Z,17.13
2018-08-24T06:01:42.404Z,17.12
2018-08-24T06:04:10.829Z,17.06
2018-08-24T06:06:39.310Z,17.07
2018-08-24T06:09:14.044Z,17.02
2018-08-24T06:11:42.643Z,17.05
2018-08-24T06:14:12.054Z,17.02
2018-08-24T06:16:44.693Z,17.03
2018-08-24T06:19:13.154Z,17.03
2018-08-24T06:21:42.132Z,17.03
2018-08-24T06:24:10.499Z,16.99
2018-08-24T06:26:38.906Z,16.99
2018-08-24T06:29:07.283Z,17.05
2018-08-24T06:31:35.735Z,17.01
2018-08-24T06:34:04.155Z,17.06
2018-08-24T06:36:32.584Z,17.01
2018-08-24T06:39:00.984Z,16.90
2018-08-24T06:41:29.381Z,16.94
2018-08-24T06:44:05.205Z,16.94
2018-08-24T06:46:33.602Z,16.96
2018-08-24T06:49:02.001Z,16.93
2018-08-24T06:51:30.391Z,16.98
2018-08-24T06:53:58.850Z,17.03
2018-08-24T06:56:27.296Z,16.95
2018-08-24T06:58:55.743Z,16.94
2018-08-24T07:01:24.196Z,16.96
2018-08-24T07:03:52.661Z,16.91
2018-08-24T07:06:21.090Z,16.90
2018-08-24T07:08:49.517Z,16.92
2018-08-24T07:11:18.412Z,17.00
2018-08-24T07:13:49.082Z,16.99
2018-08-24T07:16:17.576Z,17.01
2018-08-24T07:18:46.005Z,16.94
2018-08-24T07:21:14.424Z,16.95
2018-08-24T07:23:42.828Z,16.94
2018-08-24T07:26:11.360Z,16.99
2018-08-24T07:28:39.925Z,16.98
2018-08-24T07:31:08.540Z,17.05
2018-08-24T07:33:36.989Z,17.03
2018-08-24T07:36:05.496Z,16.93
2018-08-24T07:38:34.005Z,16.92
2018-08-24T07:41:02.425Z,16.93
2018-08-24T07:43:30.897Z,16.95
2018-08-24T07:45:59.439Z,16.96
2018-08-24T07:48:27.917Z,16.99
2018-08-24T07:50:56.461Z,16.92
2018-08-24T07:53:24.876Z,16.97
2018-08-24T07:55:53.877Z,17.02
2018-08-24T07:58:22.327Z,17.02
2018-08-24T08:00:50.789Z,16.92
2018-08-24T08:03:19.199Z,16.86
2018-08-24T08:05:47.572Z,16.90
2018-08-24T08:08:16.095Z,16.86
2018-08-24T08:10:44.481Z,16.84
2018-08-24T08:13:13.029Z,16.83
2018-08-24T08:15:41.692Z,16.86
2018-08-24T08:18:10.657Z,16.90
2018-08-24T08:20:39.682Z,16.87
2018-08-24T08:23:08.142Z,16.88
2018-08-24T08:25:36.606Z,16.88
2018-08-24T08:28:05.122Z,16.98
2018-08-24T08:30:33.601Z,16.99
2018-08-24T08:33:02.065Z,16.96
2018-08-24T08:35:30.486Z,16.89
2018-08-24T08:37:58.888Z,16.68
2018-08-24T08:40:27.342Z,16.48
2018-08-24T08:42:55.801Z,16.32
2018-08-24T08:45:24.295Z,16.07
2018-08-24T08:47:52.693Z,16.06
2018-08-24T08:50:21.132Z,16.04
2018-08-24T08:52:49.546Z,16.09
2018-08-24T08:55:17.978Z,16.23
2018-08-24T08:57:46.416Z,16.45
2018-08-24T09:00:14.865Z,16.61
2018-08-24T09:02:43.309Z,16.53
2018-08-24T09:05:11.774Z,16.63
2018-08-24T09:07:40.195Z,16.78
2018-08-24T09:10:08.672Z,16.79
2018-08-24T09:12:37.127Z,16.75
2018-08-24T09:15:06.639Z,16.69
2018-08-24T09:17:40.433Z,16.64
2018-08-24T09:20:14.274Z,16.60
2018-08-24T09:22:47.826Z,16.60
2018-08-24T09:25:21.683Z,16.68
2018-08-24T09:27:55.331Z,16.64
2018-08-24T09:30:25.049Z,16.69
2018-08-24T09:32:53.475Z,16.82
2018-08-24T09:35:21.927Z,16.70
2018-08-24T09:37:50.353Z,16.80
2018-08-24T09:40:18.808Z,16.69
2018-08-24T09:42:47.300Z,16.69
2018-08-24T09:45:15.692Z,16.65
2018-08-24T09:47:49.508Z,16.66
2018-08-24T09:50:23.232Z,16.68
2018-08-24T09:52:56.836Z,16.87
2018-08-24T09:55:29.386Z,17.10
2018-08-24T09:57:57.834Z,17.20
2018-08-24T10:00:30.371Z,17.20
2018-08-24T10:04:02.604Z,17.28
2018-08-24T10:06:36.487Z,17.41
2018-08-24T10:09:08.144Z,17.36
2018-08-24T10:11:36.797Z,17.48
2018-08-24T10:14:05.542Z,17.58
2018-08-24T10:16:34.065Z,17.57
2018-08-24T10:19:02.577Z,17.57
2018-08-24T10:21:30.947Z,17.47
2018-08-24T10:23:59.454Z,17.40
2018-08-24T10:26:27.912Z,17.29
2018-08-24T10:28:58.152Z,17.28
2018-08-24T10:31:26.566Z,17.26
2018-08-24T10:33:55.058Z,17.23
2018-08-24T10:36:23.385Z,17.30
2018-08-24T10:38:51.776Z,17.36
2018-08-24T10:41:20.250Z,17.38
2018-08-24T10:43:48.717Z,17.47
2018-08-24T10:46:17.137Z,17.59
2018-08-24T10:48:45.556Z,17.61
2018-08-24T10:51:14.004Z,17.59
2018-08-24T10:53:42.462Z,17.56
2018-08-24T10:56:10.934Z,17.53
2018-08-24T10:58:39.281Z,17.55
2018-08-24T11:01:07.686Z,17.66
2018-08-24T11:03:36.130Z,17.78
2018-08-24T11:06:04.512Z,17.81
2018-08-24T11:08:32.934Z,17.87
2018-08-24T11:11:01.421Z,17.93
2018-08-24T11:13:29.898Z,17.94
2018-08-24T11:15:58.344Z,18.00
2018-08-24T11:18:26.969Z,18.13
2018-08-24T11:20:55.720Z,18.20
2018-08-24T11:23:24.275Z,18.20
2018-08-24T11:25:52.753Z,18.16
2018-08-24T11:28:21.505Z,18.25
2018-08-24T11:30:50.027Z,18.32
2018-08-24T11:33:18.465Z,18.38
2018-08-24T11:35:46.979Z,18.42
2018-08-24T11:38:15.361Z,18.51
2018-08-24T11:40:43.764Z,18.58
2018-08-24T11:43:12.143Z,18.62
2018-08-24T11:45:40.591Z,18.83
2018-08-24T11:48:09.064Z,18.85
2018-08-24T11:50:37.493Z,18.69
2018-08-24T11:53:06.068Z,18.47
2018-08-24T11:55:34.541Z,18.63
2018-08-24T11:58:03.056Z,18.68
2018-08-24T12:00:32.703Z,18.52
2018-08-24T12:03:02.092Z,18.71
2018-08-24T12:05:30.985Z,18.84
2018-08-24T12:07:59.590Z,18.98
2018-08-24T12:10:27.989Z,19.02
2018-08-24T12:12:57.011Z,18.90
2018-08-24T12:15:25.449Z,18.86
2018-08-24T12:17:54.462Z,18.80
2018-08-24T12:20:22.928Z,18.94
2018-08-24T12:22:51.523Z,19.14
2018-08-24T12:25:19.972Z,19.21
2018-08-24T12:27:48.389Z,19.24
2018-08-24T12:30:16.840Z,19.38
2018-08-24T12:32:45.383Z,19.24
2018-08-24T12:35:13.835Z,19.35
2018-08-24T12:37:45.021Z,19.25
2018-08-24T12:40:14.667Z,19.62
2018-08-24T12:42:43.077Z,19.86
2018-08-24T12:45:11.528Z,20.10
2018-08-24T12:47:40.028Z,20.32
2018-08-24T12:50:08.997Z,20.42
2018-08-24T12:52:37.424Z,20.25
2018-08-24T12:55:05.972Z,19.72
2018-08-24T12:57:34.396Z,19.52
2018-08-24T13:00:02.916Z,19.47
2018-08-24T13:02:31.313Z,19.40
2018-08-24T13:04:59.793Z,19.35
2018-08-24T13:07:28.244Z,19.38
2018-08-24T13:09:56.724Z,19.51
2018-08-24T13:12:25.156Z,19.67
2018-08-24T13:14:54.469Z,19.72
2018-08-24T13:17:23.010Z,19.66
2018-08-24T13:19:51.449Z,19.81
2018-08-24T13:22:19.901Z,19.90
2018-08-24T13:24:48.305Z,19.95
2018-08-24T13:27:16.804Z,20.01
2018-08-24T13:29:45.182Z,19.96
2018-08-24T13:32:13.689Z,19.94
2018-08-24T13:34:42.086Z,19.73
2018-08-24T13:37:10.547Z,19.63
2018-08-24T13:39:39.029Z,19.66
2018-08-24T13:42:07.515Z,19.62
2018-08-24T13:44:35.950Z,19.55
2018-08-24T13:47:04.474Z,19.61
2018-08-24T13:49:32.846Z,19.51
2018-08-24T13:52:01.337Z,19.48
2018-08-24T13:54:29.759Z,19.48
2018-08-24T13:56:58.184Z,18.98
2018-08-24T13:59:26.630Z,19.56
2018-08-24T14:01:55.057Z,19.63
2018-08-24T14:04:23.485Z,19.69
2018-08-24T14:06:52.038Z,19.69
2018-08-24T14:09:20.506Z,19.67
2018-08-24T14:11:48.950Z,19.61
2018-08-24T14:14:17.443Z,19.53
2018-08-24T14:16:45.877Z,19.46
2018-08-24T14:19:14.991Z,19.44
2018-08-24T14:21:43.457Z,19.40
2018-08-24T14:24:12.033Z,19.44
2018-08-24T14:26:40.522Z,19.42
2018-08-24T14:29:09.061Z,19.48
2018-08-24T14:31:37.574Z,19.39
2018-08-24T14:34:06.004Z,19.38
2018-08-24T14:36:34.502Z,19.37
2018-08-24T14:39:03.004Z,19.34
2018-08-24T14:41:31.463Z,19.29
2018-08-24T14:44:00.204Z,19.32
2018-08-24T14:46:28.639Z,19.33
2018-08-24T14:48:58.105Z,19.31
2018-08-24T14:51:27.171Z,19.23
2018-08-24T14:53:55.606Z,19.18
2018-08-24T14:56:24.047Z,19.11
2018-08-24T14:58:52.545Z,19.17
2018-08-24T15:01:21.636Z,19.13
2018-08-24T15:03:51.021Z,19.11
2018-08-24T15:06:20.827Z,19.12
2018-08-24T15:08:49.280Z,19.06
2018-08-24T15:11:18.902Z,19.03
2018-08-24T15:13:47.360Z,19.03
2018-08-24T15:16:15.784Z,19.00
2018-08-24T15:18:44.209Z,19.04
2018-08-24T15:21:13.300Z,19.03
2018-08-24T15:23:41.770Z,18.99
2018-08-24T15:26:11.036Z,18.99
2018-08-24T15:28:39.480Z,18.93
2018-08-24T15:31:08.060Z,18.88
2018-08-24T15:33:36.535Z,18.83
2018-08-24T15:36:05.020Z,18.79
2018-08-24T15:38:33.471Z,18.60
2018-08-24T15:41:01.940Z,18.68
2018-08-24T15:43:30.328Z,18.61
2018-08-24T15:45:58.784Z,18.54
2018-08-24T15:48:27.248Z,18.51
2018-08-24T15:50:55.776Z,18.42
2018-08-24T15:53:24.791Z,18.38
2018-08-24T15:55:53.229Z,18.34
2018-08-24T15:58:21.674Z,18.31
2018-08-24T16:00:50.097Z,18.26
2018-08-24T16:03:19.193Z,18.26
2018-08-24T16:05:48.025Z,18.26
2018-08-24T16:08:16.480Z,18.29
2018-08-24T16:10:44.893Z,18.29
2018-08-24T16:13:13.345Z,18.26
2018-08-24T16:15:41.745Z,18.26
2018-08-24T16:18:15.431Z,18.26
2018-08-24T16:20:43.900Z,18.25
2018-08-24T16:23:12.780Z,18.27
2018-08-24T16:25:41.657Z,18.29
2018-08-24T16:28:10.119Z,18.28
2018-08-24T16:30:38.657Z,18.30
2018-08-24T16:33:07.098Z,18.32
2018-08-24T16:35:35.534Z,18.32
2018-08-24T16:38:03.975Z,18.32
2018-08-24T16:40:32.400Z,18.26
2018-08-24T16:43:01.463Z,18.29
2018-08-24T16:45:29.893Z,18.29
2018-08-24T16:47:58.375Z,18.29
2018-08-24T16:50:26.821Z,18.27
2018-08-24T16:52:55.729Z,18.24
2018-08-24T16:55:24.889Z,18.23
2018-08-24T16:57:53.944Z,18.15
2018-08-24T17:00:22.616Z,18.13
2018-08-24T17:02:51.083Z,18.04
2018-08-24T17:05:19.559Z,18.02
2018-08-24T17:07:48.073Z,17.99
2018-08-24T17:10:16.471Z,17.98
2018-08-24T17:12:44.956Z,17.96
2018-08-24T17:15:13.383Z,17.93
2018-08-24T17:17:41.780Z,17.87
2018-08-24T17:20:10.233Z,17.83
2018-08-24T17:22:38.654Z,17.81
2018-08-24T17:25:07.134Z,17.81
2018-08-24T17:27:35.572Z,17.83
2018-08-24T17:30:04.074Z,17.84
2018-08-24T17:32:32.564Z,17.83
2018-08-24T17:35:01.028Z,17.82
2018-08-24T17:37:29.418Z,17.83
2018-08-24T17:39:57.805Z,17.81
2018-08-24T17:42:26.236Z,17.79
2018-08-24T17:44:54.768Z,17.80
2018-08-24T17:47:23.196Z,17.77
2018-08-24T17:49:52.015Z,17.78
2018-08-24T17:52:20.479Z,17.74
2018-08-24T17:54:57.884Z,17.73
2018-08-24T17:57:27.404Z,17.70
2018-08-24T17:59:55.816Z,17.68
2018-08-24T18:02:24.296Z,17.66
2018-08-24T18:04:52.739Z,17.67
2018-08-24T18:07:21.231Z,17.68
2018-08-24T18:09:49.666Z,17.67
2018-08-24T18:12:18.071Z,17.61
2018-08-24T18:14:46.598Z,17.59
2018-08-24T18:17:15.906Z,17.57
2018-08-24T18:19:44.408Z,17.53
2018-08-24T18:22:12.825Z,17.50
2018-08-24T18:24:41.506Z,17.50
2018-08-24T18:27:09.835Z,17.43
2018-08-24T18:29:38.257Z,17.40
2018-08-24T18:32:06.765Z,17.41
2018-08-24T18:34:35.232Z,17.41
2018-08-24T18:37:03.674Z,17.39
2018-08-24T18:39:32.130Z,17.35
2018-08-24T18:42:00.532Z,17.36
2018-08-24T18:44:28.928Z,16.10
2018-08-24T18:46:57.299Z,17.36
2018-08-24T18:49:25.718Z,17.34
2018-08-24T18:51:54.117Z,17.31
2018-08-24T18:54:22.472Z,17.29
2018-08-24T18:56:50.881Z,17.25
2018-08-24T18:59:19.577Z,17.20
2018-08-24T19:01:48.072Z,17.17
2018-08-24T19:04:16.475Z,17.14
2018-08-24T19:06:44.972Z,17.07
2018-08-24T19:09:13.743Z,17.05
2018-08-24T19:11:47.549Z,17.03
2018-08-24T19:14:15.983Z,17.02
2018-08-24T19:16:44.430Z,17.01
2018-08-24T19:19:18.172Z,16.99
2018-08-24T19:21:48.405Z,16.99
2018-08-24T19:24:16.826Z,17.00
2018-08-24T19:26:45.278Z,16.96
2018-08-24T19:29:19.060Z,16.96
2018-08-24T19:31:47.554Z,16.90
2018-08-24T19:34:16.009Z,16.89
2018-08-24T19:36:44.492Z,16.84
2018-08-24T19:39:14.589Z,16.78
2018-08-24T19:41:48.217Z,16.79
2018-08-24T19:44:16.693Z,16.79
2018-08-24T19:46:45.396Z,16.77
2018-08-24T19:49:19.409Z,16.79
2018-08-24T19:51:47.866Z,16.75
2018-08-24T19:54:17.617Z,16.72
2018-08-24T19:56:46.957Z,16.73
2018-08-24T19:59:16.674Z,16.75
2018-08-24T20:01:45.156Z,16.75
2018-08-24T20:04:13.575Z,16.74
2018-08-24T20:07:49.501Z,16.75
2018-08-24T20:10:18.533Z,16.70
2018-08-24T20:12:47.841Z,16.69
2018-08-24T20:15:21.467Z,16.67
2018-08-24T20:17:49.965Z,16.66
2018-08-24T20:20:18.418Z,16.65
2018-08-24T20:22:46.881Z,16.60
2018-08-24T20:25:15.320Z,16.55
2018-08-24T20:27:43.757Z,16.52
2018-08-24T20:30:12.152Z,16.49
2018-08-24T20:32:40.564Z,16.48
2018-08-24T20:35:09.068Z,16.48
2018-08-24T20:37:37.564Z,16.41
2018-08-24T20:40:06.495Z,16.38
2018-08-24T20:42:35.058Z,16.31
2018-08-24T20:45:03.557Z,16.27
2018-08-24T20:47:32.029Z,16.29
2018-08-24T20:50:00.542Z,16.31
2018-08-24T20:52:29.090Z,16.32
2018-08-24T20:54:57.574Z,16.31
2018-08-24T20:57:26.039Z,16.27
2018-08-24T20:59:54.559Z,16.25
2018-08-24T21:02:22.988Z,16.22
2018-08-24T21:04:51.431Z,16.15
2018-08-24T21:07:19.899Z,16.09
2018-08-24T21:09:48.360Z,16.01
2018-08-24T21:12:16.836Z,15.87
2018-08-24T21:14:45.233Z,15.77
2018-08-24T21:17:13.664Z,15.67
2018-08-24T21:19:42.088Z,15.68
2018-08-24T21:22:10.613Z,15.73
2018-08-24T21:24:39.164Z,15.72
2018-08-24T21:27:07.651Z,15.75
2018-08-24T21:29:36.104Z,15.78
2018-08-24T21:32:04.770Z,15.83
2018-08-24T21:34:33.211Z,15.75
2018-08-24T21:37:01.708Z,15.66
2018-08-24T21:39:30.245Z,15.62
2018-08-24T21:41:58.684Z,15.60
2018-08-24T21:44:27.109Z,15.59
2018-08-24T21:46:55.522Z,15.63
2018-08-24T21:49:23.917Z,15.68
2018-08-24T21:51:52.333Z,15.71
2018-08-24T21:54:20.852Z,15.74
2018-08-24T21:56:49.280Z,15.77
2018-08-24T21:59:17.718Z,15.76
2018-08-24T22:01:46.271Z,15.71
2018-08-24T22:04:14.767Z,15.70
2018-08-24T22:06:43.175Z,15.70
2018-08-24T22:09:11.615Z,15.69
2018-08-24T22:11:40.055Z,15.65
2018-08-24T22:14:08.466Z,15.69
2018-08-24T22:16:37.001Z,15.73
2018-08-24T22:19:05.842Z,15.74
2018-08-24T22:21:34.325Z,15.78
2018-08-24T22:24:02.744Z,15.82
2018-08-24T22:26:31.168Z,15.87
2018-08-24T22:28:59.588Z,15.87
2018-08-24T22:31:28.062Z,15.86
2018-08-24T22:33:56.529Z,15.87
2018-08-24T22:36:25.013Z,15.91
2018-08-24T22:38:53.477Z,15.90
2018-08-24T22:41:21.917Z,15.94
2018-08-24T22:43:50.363Z,15.95
2018-08-24T22:46:18.780Z,15.97
2018-08-24T22:48:47.163Z,15.93
2018-08-24T22:51:15.541Z,15.94
2018-08-24T22:53:43.994Z,15.93
2018-08-24T22:56:12.470Z,15.92
2018-08-24T22:58:40.910Z,15.93
2018-08-24T23:01:09.321Z,15.91
2018-08-24T23:03:37.798Z,15.88
2018-08-24T23:06:06.244Z,15.90
2018-08-24T23:08:34.648Z,15.92
2018-08-24T23:11:03.102Z,15.91
2018-08-24T23:13:31.573Z,15.89
2018-08-24T23:16:00.008Z,15.89
2018-08-24T23:18:28.432Z,15.89
2018-08-24T23:20:56.841Z,15.89
2018-08-24T23:23:25.260Z,15.86
2018-08-24T23:25:53.703Z,15.85
2018-08-24T23:28:22.151Z,15.85
2018-08-24T23:30:50.562Z,15.86
2018-08-24T23:33:19.010Z,15.87
2018-08-24T23:35:47.440Z,15.87
2018-08-24T23:38:15.885Z,15.84
2018-08-24T23:40:44.288Z,15.83
2018-08-24T23:43:12.731Z,15.77
2018-08-24T23:45:41.205Z,15.79
2018-08-24T23:48:09.633Z,15.77
2018-08-24T23:50:38.143Z,15.77
2018-08-24T23:53:07.919Z,15.74
2018-08-24T23:55:36.402Z,15.71
2018-08-24T23:58:04.853Z,15.69
